sensor_id;sensor_type;location;lat;lon;timestamp;pressure;altitude;pressure_sealevel;temperature;humidity
37132;BME280;23035;50.032;21.978;2023-05-20T00:00:38;66596.16;;;13.67;100.00
37132;BME280;23035;50.032;21.978;2023-05-20T00:05:54;66634.16;;;13.98;100.00
37132;BME280;23035;50.032;21.978;2023-05-20T00:10:58;66663.03;;;14.21;100.00
37132;BME280;23035;50.032;21.978;2023-05-20T00:16:04;66681.78;;;14.36;100.00
37132;BME280;23035;50.032;21.978;2023-05-20T00:21:08;66705.00;;;14.60;100.00
37132;BME280;23035;50.032;21.978;2023-05-20T00:26:12;66718.38;;;14.71;100.00
37132;BME280;23035;50.032;21.978;2023-05-20T00:31:18;66694.25;;;14.50;100.00
37132;BME280;23035;50.032;21.978;2023-05-20T00:36:23;66696.47;;;14.55;100.00
37132;BME280;23035;50.032;21.978;2023-05-20T00:41:27;66709.00;;;14.72;100.00
37132;BME280;23035;50.032;21.978;2023-05-20T00:46:32;66708.22;;;14.63;100.00
37132;BME280;23035;50.032;21.978;2023-05-20T00:51:37;66701.47;;;14.64;100.00
37132;BME280;23035;50.032;21.978;2023-05-20T00:56:41;66656.66;;;14.17;100.00
37132;BME280;23035;50.032;21.978;2023-05-20T01:01:47;66649.06;;;14.07;100.00
37132;BME280;23035;50.032;21.978;2023-05-20T01:06:52;66594.66;;;13.54;100.00
37132;BME280;23035;50.032;21.978;2023-05-20T01:12:01;66614.19;;;13.77;100.00
37132;BME280;23035;50.032;21.978;2023-05-20T01:17:08;66549.06;;;13.13;100.00
37132;BME280;23035;50.032;21.978;2023-05-20T01:22:14;66610.94;;;13.74;100.00
37132;BME280;23035;50.032;21.978;2023-05-20T01:27:20;66642.13;;;14.03;100.00
37132;BME280;23035;50.032;21.978;2023-05-20T01:32:30;66660.88;;;14.19;100.00
37132;BME280;23035;50.032;21.978;2023-05-20T01:37:39;66629.84;;;13.94;100.00
37132;BME280;23035;50.032;21.978;2023-05-20T01:42:45;66681.94;;;14.41;100.00
37132;BME280;23035;50.032;21.978;2023-05-20T01:47:54;66651.34;;;14.15;100.00
37132;BME280;23035;50.032;21.978;2023-05-20T01:52:59;66660.59;;;14.26;100.00
37132;BME280;23035;50.032;21.978;2023-05-20T01:58:05;66700.31;;;14.61;100.00
37132;BME280;23035;50.032;21.978;2023-05-20T02:03:10;66681.88;;;14.39;100.00
37132;BME280;23035;50.032;21.978;2023-05-20T02:08:15;66714.31;;;14.74;100.00
37132;BME280;23035;50.032;21.978;2023-05-20T02:13:20;66681.94;;;14.41;100.00
37132;BME280;23035;50.032;21.978;2023-05-20T02:18:24;66672.25;;;14.32;100.00
37132;BME280;23035;50.032;21.978;2023-05-20T02:23:29;66686.16;;;14.43;100.00
37132;BME280;23035;50.032;21.978;2023-05-20T02:28:34;66734.06;;;14.88;100.00
37132;BME280;23035;50.032;21.978;2023-05-20T02:33:41;66700.72;;;14.56;100.00
37132;BME280;23035;50.032;21.978;2023-05-20T02:38:45;66712.69;;;14.73;100.00
37132;BME280;23035;50.032;21.978;2023-05-20T02:43:51;66683.63;;;14.45;100.00
37132;BME280;23035;50.032;21.978;2023-05-20T02:48:55;66707.78;;;14.66;100.00
37132;BME280;23035;50.032;21.978;2023-05-20T02:53:59;66700.78;;;14.59;100.00
37132;BME280;23035;50.032;21.978;2023-05-20T02:59:05;66723.91;;;14.81;100.00
37132;BME280;23035;50.032;21.978;2023-05-20T03:04:10;66704.53;;;14.62;100.00
37132;BME280;23035;50.032;21.978;2023-05-20T03:09:14;66709.41;;;14.67;100.00
37132;BME280;23035;50.032;21.978;2023-05-20T03:14:20;66737.91;;;14.94;100.00
37132;BME280;23035;50.032;21.978;2023-05-20T03:19:24;66658.81;;;14.19;100.00
37132;BME280;23035;50.032;21.978;2023-05-20T03:24:28;66674.41;;;14.34;100.00
37132;BME280;23035;50.032;21.978;2023-05-20T03:29:33;66713.22;;;14.73;100.00
37132;BME280;23035;50.032;21.978;2023-05-20T03:34:37;66683.47;;;14.40;100.00
37132;BME280;23035;50.032;21.978;2023-05-20T03:39:42;66646.00;;;14.10;100.00
37132;BME280;23035;50.032;21.978;2023-05-20T03:44:47;66705.00;;;14.60;100.00
37132;BME280;23035;50.032;21.978;2023-05-20T03:49:51;66650.75;;;14.12;100.00
37132;BME280;23035;50.032;21.978;2023-05-20T03:54:56;66605.59;;;13.69;100.00
37132;BME280;23035;50.032;21.978;2023-05-20T04:00:02;66649.38;;;14.18;100.00
37132;BME280;23035;50.032;21.978;2023-05-20T04:05:17;66680.31;;;14.40;100.00
37132;BME280;23035;50.032;21.978;2023-05-20T04:10:22;66708.31;;;14.66;100.00
37132;BME280;23035;50.032;21.978;2023-05-20T04:15:28;66711.69;;;14.74;100.00
37132;BME280;23035;50.032;21.978;2023-05-20T04:20:33;66715.78;;;14.71;100.00
37132;BME280;23035;50.032;21.978;2023-05-20T04:25:37;66670.47;;;14.25;100.00
37132;BME280;23035;50.032;21.978;2023-05-20T04:30:44;66677.47;;;14.32;100.00
37132;BME280;23035;50.032;21.978;2023-05-20T04:35:48;66656.03;;;14.14;100.00
37132;BME280;23035;50.032;21.978;2023-05-20T04:40:53;66632.56;;;13.97;100.00
37132;BME280;23035;50.032;21.978;2023-05-20T04:46:00;66667.88;;;14.25;100.00
37132;BME280;23035;50.032;21.978;2023-05-20T04:51:07;66680.41;;;14.42;100.00
37132;BME280;23035;50.032;21.978;2023-05-20T04:56:11;66688.50;;;14.50;100.00
37132;BME280;23035;50.032;21.978;2023-05-20T05:01:18;66716.84;;;14.72;100.00
37132;BME280;23035;50.032;21.978;2023-05-20T05:06:23;66771.81;;;15.26;100.00
37132;BME280;23035;50.032;21.978;2023-05-20T05:11:27;66673.25;;;14.30;100.00
37132;BME280;23035;50.032;21.978;2023-05-20T05:16:33;66702.31;;;14.58;100.00
37132;BME280;23035;50.032;21.978;2023-05-20T05:21:37;66700.25;;;14.58;100.00
37132;BME280;23035;50.032;21.978;2023-05-20T05:26:41;66727.75;;;14.87;100.00
37132;BME280;23035;50.032;21.978;2023-05-20T05:31:47;66685.00;;;14.39;100.00
37132;BME280;23035;50.032;21.978;2023-05-20T05:36:51;66754.13;;;15.12;100.00
37132;BME280;23035;50.032;21.978;2023-05-20T05:41:55;66780.97;;;15.35;100.00
37132;BME280;23035;50.032;21.978;2023-05-20T05:47:01;66815.91;;;15.65;100.00
37132;BME280;23035;50.032;21.978;2023-05-20T05:52:06;66841.97;;;15.97;100.00
37132;BME280;23035;50.032;21.978;2023-05-20T05:57:10;66881.13;;;16.29;100.00
37132;BME280;23035;50.032;21.978;2023-05-20T06:02:16;66857.28;;;16.02;100.00
37132;BME280;23035;50.032;21.978;2023-05-20T06:07:22;66812.22;;;15.64;100.00
37132;BME280;23035;50.032;21.978;2023-05-20T06:12:26;66858.97;;;16.06;100.00
37132;BME280;23035;50.032;21.978;2023-05-20T06:17:32;66889.81;;;16.40;100.00
37132;BME280;23035;50.032;21.978;2023-05-20T06:22:36;66872.38;;;16.16;100.00
37132;BME280;23035;50.032;21.978;2023-05-20T06:27:40;66886.38;;;16.29;100.00
37132;BME280;23035;50.032;21.978;2023-05-20T06:32:48;66863.28;;;16.10;100.00
37132;BME280;23035;50.032;21.978;2023-05-20T06:37:52;66887.44;;;16.30;100.00
37132;BME280;23035;50.032;21.978;2023-05-20T06:42:57;66912.84;;;16.57;100.00
37132;BME280;23035;50.032;21.978;2023-05-20T06:48:37;66945.25;;;16.90;100.00
37132;BME280;23035;50.032;21.978;2023-05-20T06:53:42;66942.03;;;16.87;100.00
37132;BME280;23035;50.032;21.978;2023-05-20T06:58:47;66954.34;;;16.96;100.00
37132;BME280;23035;50.032;21.978;2023-05-20T07:03:52;66894.03;;;16.42;100.00
37132;BME280;23035;50.032;21.978;2023-05-20T07:08:56;66884.97;;;16.35;100.00
37132;BME280;23035;50.032;21.978;2023-05-20T07:14:01;66939.94;;;16.87;100.00
37132;BME280;23035;50.032;21.978;2023-05-20T07:19:08;67061.72;;;18.00;100.00
37132;BME280;23035;50.032;21.978;2023-05-20T07:24:12;67009.41;;;17.51;100.00
37132;BME280;23035;50.032;21.978;2023-05-20T07:29:16;67042.38;;;17.84;100.00
37132;BME280;23035;50.032;21.978;2023-05-20T07:34:22;67066.56;;;18.04;100.00
37132;BME280;23035;50.032;21.978;2023-05-20T07:39:26;67107.56;;;18.43;100.00
37132;BME280;23035;50.032;21.978;2023-05-20T07:44:30;67086.00;;;18.23;100.00
37132;BME280;23035;50.032;21.978;2023-05-20T07:49:35;67108.63;;;18.44;100.00
37132;BME280;23035;50.032;21.978;2023-05-20T07:54:40;67092.53;;;18.31;100.00
37132;BME280;23035;50.032;21.978;2023-05-20T07:59:44;67194.38;;;19.23;100.00
37132;BME280;23035;50.032;21.978;2023-05-20T08:04:51;67136.09;;;18.68;100.00
37132;BME280;23035;50.032;21.978;2023-05-20T08:09:56;67033.50;;;17.68;100.00
37132;BME280;23035;50.032;21.978;2023-05-20T08:15:06;66994.16;;;17.31;100.00
37132;BME280;23035;50.032;21.978;2023-05-20T08:20:12;67078.03;;;18.20;100.00
37132;BME280;23035;50.032;21.978;2023-05-20T08:25:16;67147.50;;;18.81;100.00
37132;BME280;23035;50.032;21.978;2023-05-20T08:30:21;67069.94;;;18.13;100.00
37132;BME280;23035;50.032;21.978;2023-05-20T08:35:27;67022.34;;;17.63;100.00
37132;BME280;23035;50.032;21.978;2023-05-20T08:40:33;67137.84;;;18.74;100.00
37132;BME280;23035;50.032;21.978;2023-05-20T08:45:38;67144.25;;;18.78;100.00
37132;BME280;23035;50.032;21.978;2023-05-20T08:50:49;67259.66;;;19.82;100.00
37132;BME280;23035;50.032;21.978;2023-05-20T08:55:55;67277.06;;;20.03;100.00
37132;BME280;23035;50.032;21.978;2023-05-20T09:01:03;67334.38;;;20.57;100.00
37132;BME280;23035;50.032;21.978;2023-05-20T09:06:08;67249.00;;;19.76;100.00
37132;BME280;23035;50.032;21.978;2023-05-20T09:11:14;67319.69;;;20.41;100.00
37132;BME280;23035;50.032;21.978;2023-05-20T09:16:18;67335.44;;;20.58;100.00
37132;BME280;23035;50.032;21.978;2023-05-20T09:21:26;67285.84;;;20.16;100.00
37132;BME280;23035;50.032;21.978;2023-05-20T09:26:30;67277.50;;;19.98;100.00
37132;BME280;23035;50.032;21.978;2023-05-20T09:31:35;67288.94;;;20.14;100.00
37132;BME280;23035;50.032;21.978;2023-05-20T09:36:43;67276.00;;;20.02;100.00
37132;BME280;23035;50.032;21.978;2023-05-20T09:41:51;67381.97;;;21.04;100.00
37132;BME280;23035;50.032;21.978;2023-05-20T09:46:58;67288.50;;;20.16;100.00
37132;BME280;23035;50.032;21.978;2023-05-20T09:52:05;67294.41;;;20.22;100.00
37132;BME280;23035;50.032;21.978;2023-05-20T09:57:10;67256.63;;;19.86;100.00
37132;BME280;23035;50.032;21.978;2023-05-20T10:02:15;67326.31;;;20.52;100.00
37132;BME280;23035;50.032;21.978;2023-05-20T10:07:43;67340.91;;;20.66;100.00
37132;BME280;23035;50.032;21.978;2023-05-20T10:12:57;67345.72;;;20.68;100.00
37132;BME280;23035;50.032;21.978;2023-05-20T10:23:31;67332.66;;;20.53;100.00
37132;BME280;23035;50.032;21.978;2023-05-20T10:28:35;67355.91;;;20.75;100.00
37132;BME280;23035;50.032;21.978;2023-05-20T10:33:41;67324.03;;;20.45;100.00
37132;BME280;23035;50.032;21.978;2023-05-20T10:38:51;67346.78;;;20.69;100.00
37132;BME280;23035;50.032;21.978;2023-05-20T10:43:59;67371.03;;;20.89;100.00
37132;BME280;23035;50.032;21.978;2023-05-20T10:49:04;67398.00;;;21.12;100.00
37132;BME280;23035;50.032;21.978;2023-05-20T10:54:11;67432.72;;;21.50;100.00
37132;BME280;23035;50.032;21.978;2023-05-20T10:59:15;67404.53;;;21.20;100.00
37132;BME280;23035;50.032;21.978;2023-05-20T11:04:19;67510.56;;;22.20;100.00
37132;BME280;23035;50.032;21.978;2023-05-20T11:09:24;67464.09;;;21.79;100.00
37132;BME280;23035;50.032;21.978;2023-05-20T11:14:29;67580.94;;;22.89;100.00
37132;BME280;23035;50.032;21.978;2023-05-20T11:19:36;67828.53;;;25.24;85.28
37132;BME280;23035;50.032;21.978;2023-05-20T11:24:41;67948.78;;;26.32;78.13
37132;BME280;23035;50.032;21.978;2023-05-20T11:29:48;67867.56;;;25.61;79.29
37132;BME280;23035;50.032;21.978;2023-05-20T11:34:53;67878.41;;;25.71;75.68
37132;BME280;23035;50.032;21.978;2023-05-20T11:40:06;67825.28;;;25.21;79.38
37132;BME280;23035;50.032;21.978;2023-05-20T11:45:12;67876.84;;;25.72;77.72
37132;BME280;23035;50.032;21.978;2023-05-20T11:50:17;67849.06;;;25.41;74.92
37132;BME280;23035;50.032;21.978;2023-05-20T11:55:22;67824.09;;;25.15;77.52
37132;BME280;23035;50.032;21.978;2023-05-20T12:00:26;68034.06;;;27.14;70.72
37132;BME280;23035;50.032;21.978;2023-05-20T12:05:41;68097.56;;;27.74;66.11
37132;BME280;23035;50.032;21.978;2023-05-20T12:10:47;68037.88;;;27.21;66.08
37132;BME280;23035;50.032;21.978;2023-05-20T12:15:51;68110.66;;;27.91;63.77
37132;BME280;23035;50.032;21.978;2023-05-20T12:20:55;68028.63;;;27.09;63.31
37132;BME280;23035;50.032;21.978;2023-05-20T12:26:00;68017.16;;;26.96;64.05
37132;BME280;23035;50.032;21.978;2023-05-20T12:31:04;67999.25;;;26.79;64.97
37132;BME280;23035;50.032;21.978;2023-05-20T12:36:09;68067.09;;;27.43;63.11
37132;BME280;23035;50.032;21.978;2023-05-20T12:41:14;68012.38;;;26.97;64.84
37132;BME280;23035;50.032;21.978;2023-05-20T12:46:18;67975.44;;;26.59;65.23
37132;BME280;23035;50.032;21.978;2023-05-20T12:51:22;67955.88;;;26.39;64.30
37132;BME280;23035;50.032;21.978;2023-05-20T12:56:28;67970.00;;;26.54;62.71
37132;BME280;23035;50.032;21.978;2023-05-20T13:01:32;67954.28;;;26.40;66.42
37132;BME280;23035;50.032;21.978;2023-05-20T13:06:36;67956.47;;;26.42;59.66
37132;BME280;23035;50.032;21.978;2023-05-20T13:11:42;67935.28;;;26.22;63.13
37132;BME280;23035;50.032;21.978;2023-05-20T13:16:46;67973.78;;;26.55;60.35
37132;BME280;23035;50.032;21.978;2023-05-20T13:21:50;68056.25;;;27.33;58.99
37132;BME280;23035;50.032;21.978;2023-05-20T13:26:57;68075.84;;;27.54;58.25
37132;BME280;23035;50.032;21.978;2023-05-20T13:32:02;68126.94;;;28.04;55.75
37132;BME280;23035;50.032;21.978;2023-05-20T13:37:06;68266.47;;;29.32;51.21
37132;BME280;23035;50.032;21.978;2023-05-20T13:42:11;68139.91;;;28.14;53.30
37132;BME280;23035;50.032;21.978;2023-05-20T13:47:15;68016.16;;;27.00;58.51
37132;BME280;23035;50.032;21.978;2023-05-20T13:52:19;68017.22;;;26.99;60.10
37132;BME280;23035;50.032;21.978;2023-05-20T13:57:25;68042.19;;;27.22;60.98
37132;BME280;23035;50.032;21.978;2023-05-20T14:02:29;68012.34;;;26.94;62.63
37132;BME280;23035;50.032;21.978;2023-05-20T14:07:33;67995.47;;;26.76;63.88
37132;BME280;23035;50.032;21.978;2023-05-20T14:12:39;68060.09;;;27.39;61.88
37132;BME280;23035;50.032;21.978;2023-05-20T14:17:44;68017.16;;;26.96;65.11
37132;BME280;23035;50.032;21.978;2023-05-20T14:22:48;68060.09;;;27.39;64.56
37132;BME280;23035;50.032;21.978;2023-05-20T14:27:54;67789.44;;;24.85;68.78
37132;BME280;23035;50.032;21.978;2023-05-20T14:32:58;67474.25;;;21.84;85.64
37132;BME280;23035;50.032;21.978;2023-05-20T14:38:02;67332.66;;;20.53;100.00
37132;BME280;23035;50.032;21.978;2023-05-20T14:43:07;67317.47;;;20.36;100.00
37132;BME280;23035;50.032;21.978;2023-05-20T14:48:11;67292.66;;;20.15;100.00
37132;BME280;23035;50.032;21.978;2023-05-20T14:53:15;67314.22;;;20.33;100.00
37132;BME280;23035;50.032;21.978;2023-05-20T14:58:23;67404.53;;;21.20;96.83
37132;BME280;23035;50.032;21.978;2023-05-20T15:03:29;67573.25;;;22.77;87.49
37132;BME280;23035;50.032;21.978;2023-05-20T15:08:33;67634.59;;;23.42;77.79
37132;BME280;23035;50.032;21.978;2023-05-20T15:13:39;67667.47;;;23.65;77.43
37132;BME280;23035;50.032;21.978;2023-05-20T15:18:43;67696.22;;;23.95;78.17
37132;BME280;23035;50.032;21.978;2023-05-20T15:23:47;67793.84;;;24.92;74.66
37132;BME280;23035;50.032;21.978;2023-05-20T15:28:52;67862.53;;;25.49;70.83
37132;BME280;23035;50.032;21.978;2023-05-20T15:33:56;67833.25;;;25.21;69.25
37132;BME280;23035;50.032;21.978;2023-05-20T15:39:01;67750.38;;;24.46;75.44
37132;BME280;23035;50.032;21.978;2023-05-20T15:44:06;67784.47;;;24.75;73.94
37132;BME280;23035;50.032;21.978;2023-05-20T15:49:11;67726.53;;;24.23;77.74
37132;BME280;23035;50.032;21.978;2023-05-20T15:54:14;67571.72;;;22.80;83.95
37132;BME280;23035;50.032;21.978;2023-05-20T15:59:22;67577.09;;;22.83;87.39
37132;BME280;23035;50.032;21.978;2023-05-20T16:04:26;67487.81;;;21.99;93.59
37132;BME280;23035;50.032;21.978;2023-05-20T16:09:31;67420.78;;;21.36;98.03
37132;BME280;23035;50.032;21.978;2023-05-20T16:14:36;67421.72;;;21.32;100.00
37132;BME280;23035;50.032;21.978;2023-05-20T16:19:40;67479.09;;;21.88;97.76
37132;BME280;23035;50.032;21.978;2023-05-20T16:24:44;67467.31;;;21.82;100.00
37132;BME280;23035;50.032;21.978;2023-05-20T16:29:50;67369.34;;;20.85;100.00
37132;BME280;23035;50.032;21.978;2023-05-20T16:34:55;67434.25;;;21.46;100.00
37132;BME280;23035;50.032;21.978;2023-05-20T16:39:59;67438.16;;;21.55;100.00
37132;BME280;23035;50.032;21.978;2023-05-20T16:45:06;67424.03;;;21.39;100.00
37132;BME280;23035;50.032;21.978;2023-05-20T16:50:10;67420.13;;;21.30;100.00
37132;BME280;23035;50.032;21.978;2023-05-20T16:55:15;67367.84;;;20.88;100.00
37132;BME280;23035;50.032;21.978;2023-05-20T17:00:20;67413.16;;;21.26;100.00
37132;BME280;23035;50.032;21.978;2023-05-20T17:05:25;67417.53;;;21.33;100.00
37132;BME280;23035;50.032;21.978;2023-05-20T17:10:29;67408.34;;;21.24;100.00
37132;BME280;23035;50.032;21.978;2023-05-20T17:15:35;67370.97;;;20.86;100.00
37132;BME280;23035;50.032;21.978;2023-05-20T17:20:39;67402.25;;;21.13;100.00
37132;BME280;23035;50.032;21.978;2023-05-20T17:25:43;67366.19;;;20.84;100.00
37132;BME280;23035;50.032;21.978;2023-05-20T17:30:48;67345.16;;;20.67;100.00
37132;BME280;23035;50.032;21.978;2023-05-20T17:35:53;67303.94;;;20.23;100.00
37132;BME280;23035;50.032;21.978;2023-05-20T17:40:57;67318.13;;;20.42;100.00
37132;BME280;23035;50.032;21.978;2023-05-20T17:46:03;67316.50;;;20.40;100.00
37132;BME280;23035;50.032;21.978;2023-05-20T17:51:07;67277.56;;;20.01;100.00
37132;BME280;23035;50.032;21.978;2023-05-20T17:56:11;67239.28;;;19.67;100.00
37132;BME280;23035;50.032;21.978;2023-05-20T18:01:17;67253.31;;;19.81;100.00
37132;BME280;23035;50.032;21.978;2023-05-20T18:06:21;67254.88;;;19.80;100.00
37132;BME280;23035;50.032;21.978;2023-05-20T18:11:27;67229.41;;;19.53;100.00
37132;BME280;23035;50.032;21.978;2023-05-20T18:16:34;67280.72;;;20.01;100.00
37132;BME280;23035;50.032;21.978;2023-05-20T18:21:39;67252.19;;;19.77;100.00
37132;BME280;23035;50.032;21.978;2023-05-20T18:26:43;67293.16;;;20.13;100.00
37132;BME280;23035;50.032;21.978;2023-05-20T18:31:48;67229.41;;;19.53;100.00
37132;BME280;23035;50.032;21.978;2023-05-20T18:36:52;67205.13;;;19.30;100.00
37132;BME280;23035;50.032;21.978;2023-05-20T18:41:57;67227.31;;;19.54;100.00
37132;BME280;23035;50.032;21.978;2023-05-20T18:47:02;67218.63;;;19.43;100.00
37132;BME280;23035;50.032;21.978;2023-05-20T18:52:06;67224.47;;;19.46;100.00
37132;BME280;23035;50.032;21.978;2023-05-20T18:57:10;67199.19;;;19.25;100.00
37132;BME280;23035;50.032;21.978;2023-05-20T19:02:16;67193.16;;;19.16;100.00
37132;BME280;23035;50.032;21.978;2023-05-20T19:07:20;67162.97;;;18.88;100.00
37132;BME280;23035;50.032;21.978;2023-05-20T19:12:25;67132.38;;;18.67;100.00
37132;BME280;23035;50.032;21.978;2023-05-20T19:17:30;67106.97;;;18.40;100.00
37132;BME280;23035;50.032;21.978;2023-05-20T19:22:34;67093.94;;;18.25;100.00
37132;BME280;23035;50.032;21.978;2023-05-20T19:27:38;67062.66;;;17.96;100.00
37132;BME280;23035;50.032;21.978;2023-05-20T19:32:44;67055.03;;;17.86;100.00
37132;BME280;23035;50.032;21.978;2023-05-20T19:37:48;67028.78;;;17.69;100.00
37132;BME280;23035;50.032;21.978;2023-05-20T19:42:52;67036.38;;;17.76;100.00
37132;BME280;23035;50.032;21.978;2023-05-20T19:47:57;67004.53;;;17.46;100.00
37132;BME280;23035;50.032;21.978;2023-05-20T19:53:02;67003.88;;;17.40;100.00
37132;BME280;23035;50.032;21.978;2023-05-20T19:58:08;66984.59;;;17.27;100.00
37132;BME280;23035;50.032;21.978;2023-05-20T20:03:14;67012.03;;;17.51;100.00
37132;BME280;23035;50.032;21.978;2023-05-20T20:08:18;66961.16;;;16.95;100.00
37132;BME280;23035;50.032;21.978;2023-05-20T20:13:22;66966.19;;;17.07;100.00
37132;BME280;23035;50.032;21.978;2023-05-20T20:18:27;66979.06;;;17.17;100.00
37132;BME280;23035;50.032;21.978;2023-05-20T20:23:31;67023.75;;;17.57;100.00
37132;BME280;23035;50.032;21.978;2023-05-20T20:28:38;66935.47;;;16.78;100.00
37132;BME280;23035;50.032;21.978;2023-05-20T20:33:43;66920.84;;;16.62;100.00
37132;BME280;23035;50.032;21.978;2023-05-20T20:38:48;66916.06;;;16.60;100.00
37132;BME280;23035;50.032;21.978;2023-05-20T20:43:53;66919.22;;;16.60;100.00
37132;BME280;23035;50.032;21.978;2023-05-20T20:48:58;66904.69;;;16.47;100.00
37132;BME280;23035;50.032;21.978;2023-05-20T20:54:02;66919.84;;;16.63;100.00
37132;BME280;23035;50.032;21.978;2023-05-20T20:59:07;67015.72;;;17.52;100.00
37132;BME280;23035;50.032;21.978;2023-05-20T21:04:16;66990.38;;;17.28;100.00
37132;BME280;23035;50.032;21.978;2023-05-20T21:09:20;66999.06;;;17.38;100.00
37132;BME280;23035;50.032;21.978;2023-05-20T21:14:25;66978.00;;;17.16;100.00
37132;BME280;23035;50.032;21.978;2023-05-20T21:19:30;66969.38;;;17.08;100.00
37132;BME280;23035;50.032;21.978;2023-05-20T21:24:34;66928.84;;;16.67;100.00
37132;BME280;23035;50.032;21.978;2023-05-20T21:29:38;66960.13;;;16.97;100.00
37132;BME280;23035;50.032;21.978;2023-05-20T21:34:44;67010.34;;;17.46;100.00
37132;BME280;23035;50.032;21.978;2023-05-20T21:39:48;66990.91;;;17.28;100.00
37132;BME280;23035;50.032;21.978;2023-05-20T21:44:52;67009.25;;;17.45;100.00
37132;BME280;23035;50.032;21.978;2023-05-20T21:49:57;66989.84;;;17.27;100.00
37132;BME280;23035;50.032;21.978;2023-05-20T21:55:01;67020.03;;;17.56;100.00
37132;BME280;23035;50.032;21.978;2023-05-20T22:00:07;67007.09;;;17.43;100.00
37132;BME280;23035;50.032;21.978;2023-05-20T22:05:14;66946.25;;;16.88;100.00
37132;BME280;23035;50.032;21.978;2023-05-20T22:10:18;66894.38;;;16.34;100.00
37132;BME280;23035;50.032;21.978;2023-05-20T22:15:25;66850.28;;;15.95;100.00
37132;BME280;23035;50.032;21.978;2023-05-20T22:20:30;66875.13;;;16.21;100.00
37132;BME280;23035;50.032;21.978;2023-05-20T22:25:35;66907.84;;;16.47;100.00
37132;BME280;23035;50.032;21.978;2023-05-20T22:30:39;66918.84;;;16.65;100.00
37132;BME280;23035;50.032;21.978;2023-05-20T22:35:44;66938.16;;;16.81;100.00
37132;BME280;23035;50.032;21.978;2023-05-20T22:40:48;66942.97;;;16.83;100.00
37132;BME280;23035;50.032;21.978;2023-05-20T22:45:52;66917.06;;;16.58;100.00
37132;BME280;23035;50.032;21.978;2023-05-20T22:50:58;66857.28;;;16.02;100.00
37132;BME280;23035;50.032;21.978;2023-05-20T22:56:03;66875.59;;;16.19;100.00
37132;BME280;23035;50.032;21.978;2023-05-20T23:01:07;66901.53;;;16.46;100.00
37132;BME280;23035;50.032;21.978;2023-05-20T23:06:13;66849.22;;;15.94;100.00
37132;BME280;23035;50.032;21.978;2023-05-20T23:11:17;66862.06;;;16.04;100.00
37132;BME280;23035;50.032;21.978;2023-05-20T23:16:21;66894.44;;;16.37;100.00
37132;BME280;23035;50.032;21.978;2023-05-20T23:21:29;66810.41;;;15.58;100.00
37132;BME280;23035;50.032;21.978;2023-05-20T23:26:33;66796.50;;;15.47;100.00
37132;BME280;23035;50.032;21.978;2023-05-20T23:31:39;66796.34;;;15.42;100.00
37132;BME280;23035;50.032;21.978;2023-05-20T23:36:44;66837.44;;;15.86;100.00
37132;BME280;23035;50.032;21.978;2023-05-20T23:41:48;66855.00;;;15.95;100.00
37132;BME280;23035;50.032;21.978;2023-05-20T23:46:52;66882.13;;;16.28;100.00
37132;BME280;23035;50.032;21.978;2023-05-20T23:51:58;66855.66;;;16.00;100.00
37132;BME280;23035;50.032;21.978;2023-05-20T23:57:03;66877.75;;;16.21;100.00
